Allakaket, Alaska
Current Conditions -  °F | °C
As of 7:53 AM on Thursday 27 Nov 2014 (Local Time) from PABT Reporting Station
Overcast Overcast  
Wind Chill: -11°   Ceiling: 20000
Heat Index: -11°   Visibility: 10mi
Dew Point: -17°   Wind: 3mph
Humidity: 75%   Direction: 320°NW
Pressure: 30.45"   Gusts: NA
Location:  66.57°N, 152.65°W
Report Text: PABT 271653Z 32003KT 10SM OVC200 M24/M27 A3045 RMK AO2 SLP343 T12391272
Loading
Personal Weather Stations






























Interactive Weather Map New forecast layout! Learn more

10-Day Weather Forecast

Advertisements
Track Severe Weather on mobile